New Salem Borough, PA (17408)

2:37 PM EST on March 05, 2015 (GMT -0500)
West York | Change Station
CLOSE
Current Station
Personal Weather Station
Location: York, PA
Elevation: 459 ft
Nearby Weather Stations
Active Advisory: Winter Storm Warning Active Notice: Public Information Statement

Elev 459 ft 39.96 °N, 76.77 °W | Updated 1 minute ago

Snow
Snow
21.9 °F
Feels Like 16 °F
N
4.3
Wind Variable Wind from NE

Today
High -- | Low -- °F
--% Chance of Precip.
Yesterday
High -- | Low -- °F
Precip. -- in
6:34 AM 6:03 PM
Full, 100% visible
Pressure 30.22 in
Visibility 0.2 miles
Clouds
Windchill 16 °F
Dew Point 21 °F
Humidity 95%
Rainfall 0.07 in
Snow Depth Not available.
UV Not available.
Pollen .60 out of 12
Air Quality Not available.
Flu Activity Not available.
METAR KTHV 051853Z AUTO 03003KT 1/4SM SN FZFG VV009 M06/M08 A3019 RMK AO2 SLP232 P0000 T10611078

More Conditions Fewer Conditions

Pressure 30.22 in
Visibility 0.2 miles
Clouds
Windchill 16 °F
Dew Point 21 °F
Humidity 95%
Rainfall 0.07 in
Snow Depth Not available.
UV Not available.
Pollen .60 out of 12
Air Quality Not available.
Flu Activity Not available.
METAR KTHV 051853Z AUTO 03003KT 1/4SM SN FZFG VV009 M06/M08 A3019 RMK AO2 SLP232 P0000 T10611078

More Conditions Fewer Conditions

10-Day Weather Forecast

Almanac

Astronomy

Mar. 05, 2015 Rise Set
Actual Time
Civil Twilight
Nautical Twilight
Astronomical Twilight
Moon
Length of Visible Light
Length of Day
Tomorrow will be .
, % of the Moon is Illuminated

Today's Extremes

State Highs State Lows

Community

WunderPhotos

Upload Photos

1,802,925 photos uploaded!

WunderBlogs® & News

Nearby

Air Quality

  Air Quality AQ Index Pollutant
Not available.

Snow Depth

Station Depth Elevation

Earthquake Activity

City Distance Mag. Time & Date
Minimum magnitude displayed is 2.5.

Coastal Water Temperatures

Place Temperature

Nearby Weather Stations

Winter Storm Warning
Statement as of 12:48 PM EST on March 05, 2015

... Winter Storm Warning remains in effect until 4 PM EST this
afternoon...

* hazard types... snow.

* Accumulations... snow accumulation of 4 to 8 inches... with
locally higher amounts over southern portions of the warning
area.

* Timing... snow... heavy at times will fall through mid afternoon
before tapering to scattered light snow showers toward Sundown.

* Impacts... hazardous travel.

Precautionary/preparedness actions...

Dangerous winter weather conditions are expected or occurring.
Use extreme caution if traveling. For the latest weather
information... go to weather.Gov/statecollege or monitor NOAA
Weather Radio.

Report snow or ice accumulation to the National Weather Service
State College by sending an email to ctp.Stormreports@noaa.Gov...
posting to the NWS State College facebook Page... or tweet
@nwsstatecollege with the hashtag c... T... p... W... x.